Time;durP1;ratioP1;P1;durP2;ratioP2;P2;SDS_P1;SDS_P2;PMS_P1;PMS_P2;Temp;Humidity;BMP_temperature;BMP_pressure;BME280_temperature;BME280_humidity;BME280_pressure;Samples;Min_cycle;Max_cycle;Signal;HPM_P1;HPM_P2
2021/10/24 00:00:37;;;;;;;6.60;2.03;;;19.40;54.90;;;;;;5051652;28;20219;-52
2021/10/24 00:03:08;;;;;;;8.85;2.53;;;19.40;55.30;;;;;;5051636;28;20203;-57
2021/10/24 00:05:41;;;;;;;6.53;2.13;;;19.40;55.30;;;;;;5049099;28;20235;-47
2021/10/24 00:08:11;;;;;;;10.40;2.50;;;19.40;55.30;;;;;;5050698;28;20231;-62
2021/10/24 00:10:44;;;;;;;8.88;2.83;;;19.40;56.00;;;;;;5056530;22;20255;-50
2021/10/24 00:13:14;;;;;;;8.48;2.70;;;19.40;55.60;;;;;;5041385;28;20196;-51
2021/10/24 00:15:45;;;;;;;7.43;2.50;;;19.50;55.60;;;;;;5051457;28;20608;-50
2021/10/24 00:18:15;;;;;;;8.27;2.88;;;19.50;55.50;;;;;;5049691;28;20219;-52
2021/10/24 00:20:46;;;;;;;8.32;3.55;;;19.50;55.50;;;;;;5051040;28;20715;-51
2021/10/24 00:23:17;;;;;;;6.38;3.25;;;19.50;55.40;;;;;;5067893;28;20226;-52
2021/10/24 00:25:49;;;;;;;7.35;3.40;;;19.60;55.30;;;;;;5064406;28;20199;-52
2021/10/24 00:28:20;;;;;;;6.80;3.20;;;19.60;55.20;;;;;;5039652;28;20226;-52
2021/10/24 00:30:51;;;;;;;6.20;3.30;;;19.70;55.10;;;;;;5045946;28;20280;-50
2021/10/24 00:33:22;;;;;;;7.05;3.47;;;19.70;55.00;;;;;;5050148;28;20203;-51
2021/10/24 00:35:53;;;;;;;6.47;3.25;;;19.80;54.90;;;;;;5053204;28;20205;-51
2021/10/24 00:38:23;;;;;;;7.10;3.28;;;19.80;54.70;;;;;;5062480;28;20260;-51
2021/10/24 00:40:56;;;;;;;5.60;3.08;;;19.80;54.60;;;;;;5049077;28;20721;-51
2021/10/24 00:43:26;;;;;;;6.22;2.88;;;19.90;54.50;;;;;;5034390;28;20707;-53
2021/10/24 00:45:57;;;;;;;6.13;3.22;;;19.90;54.40;;;;;;5067351;28;20230;-50
2021/10/24 00:48:27;;;;;;;6.32;3.30;;;19.90;54.30;;;;;;5063841;28;20253;-53
2021/10/24 00:50:58;;;;;;;5.60;2.92;;;20.00;54.30;;;;;;5063178;28;20313;-51
2021/10/24 00:53:29;;;;;;;6.88;3.03;;;20.00;54.20;;;;;;5059341;28;20695;-54
2021/10/24 00:56:02;;;;;;;7.50;3.05;;;20.00;54.10;;;;;;5041515;28;20239;-52
2021/10/24 00:58:32;;;;;;;8.00;3.10;;;20.10;54.10;;;;;;5045796;28;20690;-53
2021/10/24 01:01:03;;;;;;;6.57;2.70;;;20.10;54.00;;;;;;5061168;28;20631;-51
2021/10/24 01:03:34;;;;;;;5.35;2.97;;;20.10;53.90;;;;;;5063836;28;20208;-52
2021/10/24 01:06:04;;;;;;;5.80;2.83;;;20.20;53.80;;;;;;5049745;28;20278;-53
2021/10/24 01:08:38;;;;;;;5.07;2.42;;;20.20;53.80;;;;;;5051517;28;20597;-53
2021/10/24 01:11:10;;;;;;;4.90;2.83;;;20.20;53.60;;;;;;5076528;22;20258;-47
2021/10/24 01:13:41;;;;;;;5.22;2.90;;;20.30;53.60;;;;;;5080088;28;20230;-43
2021/10/24 01:16:15;;;;;;;4.75;2.88;;;20.30;53.50;;;;;;5072880;28;20570;-50
2021/10/24 01:18:46;;;;;;;5.10;2.53;;;20.30;53.50;;;;;;5070860;28;20275;-42
2021/10/24 01:21:19;;;;;;;5.38;2.33;;;20.40;53.50;;;;;;5070745;28;20254;-57
2021/10/24 01:23:50;;;;;;;5.30;2.80;;;20.40;53.50;;;;;;5070062;28;20227;-57
2021/10/24 01:26:21;;;;;;;8.82;2.92;;;20.40;53.50;;;;;;5065504;28;20229;-57
2021/10/24 01:28:52;;;;;;;6.72;2.60;;;20.50;53.60;;;;;;5070026;28;20234;-51
2021/10/24 01:31:22;;;;;;;5.22;2.78;;;20.50;53.60;;;;;;5069950;28;20322;-54
2021/10/24 01:33:53;;;;;;;7.00;2.35;;;20.50;53.50;;;;;;5053968;28;20230;-57
2021/10/24 01:36:25;;;;;;;4.78;2.35;;;20.50;53.50;;;;;;5067916;28;20698;-58
2021/10/24 01:38:55;;;;;;;6.53;3.03;;;20.60;53.50;;;;;;5068657;28;20234;-56
2021/10/24 01:41:28;;;;;;;5.93;2.90;;;20.60;53.60;;;;;;5074581;28;20264;-57
2021/10/24 01:43:59;;;;;;;7.07;3.15;;;20.60;53.60;;;;;;5077369;28;20206;-55
2021/10/24 01:46:29;;;;;;;5.10;2.70;;;20.70;53.60;;;;;;5068746;28;20667;-55
2021/10/24 01:49:00;;;;;;;6.55;2.45;;;20.70;53.50;;;;;;5068481;28;20226;-46
2021/10/24 01:51:32;;;;;;;4.80;2.50;;;20.70;53.50;;;;;;5069489;28;20258;-57
2021/10/24 01:54:03;;;;;;;4.75;2.63;;;20.80;53.50;;;;;;5085481;28;20230;-56
2021/10/24 01:56:33;;;;;;;4.03;2.60;;;20.80;53.50;;;;;;5070200;28;20241;-55
2021/10/24 01:59:03;;;;;;;6.70;2.35;;;20.80;53.50;;;;;;5080668;28;20237;-57
2021/10/24 02:01:34;;;;;;;5.50;2.45;;;20.90;53.50;;;;;;5071776;28;20250;-56
2021/10/24 02:04:04;;;;;;;6.75;2.30;;;20.90;53.40;;;;;;5068514;28;20650;-56
2021/10/24 02:06:37;;;;;;;6.45;2.47;;;21.00;53.40;;;;;;5072349;28;20285;-57
2021/10/24 02:09:07;;;;;;;6.75;2.50;;;21.00;53.40;;;;;;5080676;28;20256;-57
2021/10/24 02:11:38;;;;;;;4.00;2.38;;;21.00;53.30;;;;;;5083835;28;20257;-55
2021/10/24 02:14:08;;;;;;;7.10;2.58;;;21.00;53.20;;;;;;5052414;28;20940;-56
2021/10/24 02:16:39;;;;;;;4.13;2.00;;;21.10;53.20;;;;;;5086473;28;20236;-54
2021/10/24 02:19:10;;;;;;;6.22;2.55;;;21.10;53.20;;;;;;5083763;28;20233;-57
2021/10/24 02:21:43;;;;;;;4.75;2.50;;;21.10;53.20;;;;;;5070281;28;20224;-54
2021/10/24 02:24:13;;;;;;;7.38;2.50;;;21.20;53.20;;;;;;5076664;28;20233;-52
2021/10/24 02:26:44;;;;;;;3.38;2.28;;;21.20;53.70;;;;;;5075308;28;20230;-53
2021/10/24 02:29:14;;;;;;;5.10;2.20;;;21.30;53.10;;;;;;5071532;28;20286;-55
2021/10/24 02:31:45;;;;;;;4.55;2.05;;;21.30;53.00;;;;;;5074300;28;20325;-54
2021/10/24 02:34:15;;;;;;;3.35;2.20;;;21.30;52.90;;;;;;5070896;28;20249;-55
2021/10/24 02:36:47;;;;;;;4.80;2.38;;;21.40;53.00;;;;;;5078823;28;20223;-46
2021/10/24 02:39:18;;;;;;;3.63;2.03;;;21.40;52.90;;;;;;5073993;28;20282;-57
2021/10/24 02:41:48;;;;;;;4.70;2.42;;;21.50;52.80;;;;;;5073206;28;20625;-57
2021/10/24 02:44:19;;;;;;;3.85;2.38;;;21.50;52.70;;;;;;5082695;28;20281;-44
2021/10/24 02:46:50;;;;;;;5.13;2.42;;;21.50;52.70;;;;;;5077890;28;20699;-55
2021/10/24 02:49:21;;;;;;;4.05;1.92;;;21.60;52.60;;;;;;5077566;28;20234;-52
2021/10/24 02:51:53;;;;;;;5.32;2.13;;;21.70;52.50;;;;;;5081339;28;20250;-67
2021/10/24 02:54:24;;;;;;;5.80;2.03;;;21.70;52.60;;;;;;5070508;28;20659;-62
2021/10/24 02:56:55;;;;;;;6.55;2.28;;;21.80;52.90;;;;;;5061082;28;20241;-64
2021/10/24 02:59:25;;;;;;;12.60;2.58;;;21.90;52.90;;;;;;5088298;28;20285;-64
2021/10/24 03:01:56;;;;;;;9.82;2.95;;;21.90;53.00;;;;;;5056713;28;20247;-68
2021/10/24 03:04:27;;;;;;;7.55;2.75;;;21.90;53.10;;;;;;5067873;28;20231;-53
2021/10/24 03:06:59;;;;;;;9.18;2.45;;;21.90;53.20;;;;;;5069763;28;20241;-65
2021/10/24 03:09:30;;;;;;;9.82;2.35;;;21.90;53.10;;;;;;5071794;28;20245;-60
2021/10/24 03:12:00;;;;;;;9.13;2.47;;;22.00;53.00;;;;;;5078232;28;20654;-62
2021/10/24 03:14:31;;;;;;;6.10;1.92;;;22.00;52.90;;;;;;5080999;28;20241;-56
2021/10/24 03:17:01;;;;;;;8.30;2.58;;;22.00;52.60;;;;;;5073287;28;20234;-56
2021/10/24 03:19:32;;;;;;;8.02;2.33;;;22.00;52.60;;;;;;5087030;28;20631;-51
2021/10/24 03:22:04;;;;;;;8.35;2.67;;;22.00;52.60;;;;;;5089474;28;20257;-55
2021/10/24 03:24:36;;;;;;;6.57;2.05;;;22.00;52.60;;;;;;5071223;28;20222;-55
2021/10/24 03:27:07;;;;;;;4.68;2.13;;;22.10;52.70;;;;;;5080954;28;20207;-54
2021/10/24 03:29:37;;;;;;;5.28;2.10;;;22.10;52.60;;;;;;5071885;28;20230;-56
2021/10/24 03:32:08;;;;;;;6.47;2.47;;;22.10;52.50;;;;;;5070901;28;20663;-55
2021/10/24 03:34:39;;;;;;;5.63;1.92;;;22.20;52.50;;;;;;5070744;28;20294;-55
2021/10/24 03:37:11;;;;;;;4.38;1.88;;;22.20;52.40;;;;;;5074443;28;20275;-55
2021/10/24 03:39:42;;;;;;;9.05;2.25;;;22.30;52.40;;;;;;5083026;28;20234;-54
2021/10/24 03:42:12;;;;;;;8.32;2.30;;;22.30;52.30;;;;;;5069837;28;20260;-53
2021/10/24 03:44:42;;;;;;;4.28;2.08;;;22.40;52.30;;;;;;5087974;28;20230;-50
2021/10/24 03:47:13;;;;;;;5.47;2.05;;;22.40;52.10;;;;;;5070399;28;20263;-56
2021/10/24 03:49:44;;;;;;;5.88;2.10;;;22.40;52.00;;;;;;5083873;28;20232;-54
2021/10/24 03:52:17;;;;;;;4.85;2.33;;;22.50;52.00;;;;;;5074300;28;20262;-55
2021/10/24 03:54:47;;;;;;;8.68;2.30;;;22.50;51.80;;;;;;5070966;28;20290;-49
2021/10/24 03:57:19;;;;;;;4.35;1.92;;;22.60;51.80;;;;;;5072144;28;20237;-55
2021/10/24 03:59:49;;;;;;;4.65;1.85;;;22.60;51.70;;;;;;5072452;28;20202;-53
2021/10/24 04:02:21;;;;;;;6.72;2.40;;;22.60;52.30;;;;;;5083362;28;20246;-55
2021/10/24 04:04:52;;;;;;;4.70;1.83;;;22.70;51.70;;;;;;5085844;28;20257;-49
2021/10/24 04:07:24;;;;;;;3.33;1.80;;;22.70;51.70;;;;;;5072406;28;20663;-55
2021/10/24 04:09:54;;;;;;;3.58;1.90;;;22.80;51.70;;;;;;5068230;22;20283;-52
2021/10/24 04:12:25;;;;;;;4.18;2.00;;;22.80;51.60;;;;;;5048592;28;20278;-61
2021/10/24 04:14:55;;;;;;;3.97;2.05;;;22.80;51.50;;;;;;5050381;28;20670;-51
2021/10/24 04:17:26;;;;;;;5.65;1.88;;;22.80;51.40;;;;;;5058681;28;20253;-63
2021/10/24 04:19:57;;;;;;;5.10;1.70;;;22.90;51.40;;;;;;5057972;28;20710;-58
2021/10/24 04:22:29;;;;;;;4.57;1.90;;;22.90;51.30;;;;;;5050494;28;20314;-63
2021/10/24 04:25:00;;;;;;;4.65;1.90;;;23.00;51.10;;;;;;5050409;28;20253;-60
2021/10/24 04:27:30;;;;;;;4.95;2.08;;;23.00;50.90;;;;;;5064528;28;20257;-59
2021/10/24 04:30:01;;;;;;;4.05;2.00;;;23.00;50.90;;;;;;5068822;28;20329;-60
2021/10/24 04:32:31;;;;;;;4.50;2.05;;;23.00;50.70;;;;;;5066723;28;20222;-59
2021/10/24 04:35:02;;;;;;;3.78;1.73;;;23.10;50.70;;;;;;5061396;28;20281;-60
2021/10/24 04:37:34;;;;;;;3.40;1.63;;;23.10;50.70;;;;;;5047403;28;20234;-60
2021/10/24 04:40:05;;;;;;;4.13;1.92;;;23.10;50.60;;;;;;5047754;28;20260;-57
2021/10/24 04:42:36;;;;;;;4.25;1.88;;;23.20;50.50;;;;;;5046335;28;20242;-52
2021/10/24 04:45:08;;;;;;;4.10;1.90;;;23.20;50.50;;;;;;5058843;28;20207;-58
2021/10/24 04:47:39;;;;;;;5.25;1.90;;;23.20;50.50;;;;;;5051329;28;20254;-60
2021/10/24 04:50:10;;;;;;;3.70;1.65;;;23.30;50.50;;;;;;5064483;28;20278;-58
2021/10/24 04:52:42;;;;;;;4.63;1.60;;;23.30;50.50;;;;;;5067699;28;20281;-64
2021/10/24 04:55:13;;;;;;;2.88;1.55;;;23.30;50.50;;;;;;5050808;28;20664;-63
2021/10/24 04:57:44;;;;;;;4.00;1.95;;;23.30;50.60;;;;;;5061691;28;20230;-63
2021/10/24 05:00:15;;;;;;;3.13;1.75;;;23.40;50.60;;;;;;5040433;28;20211;-57
2021/10/24 05:02:46;;;;;;;4.35;1.90;;;23.40;50.70;;;;;;5046226;28;20227;-61
2021/10/24 05:05:16;;;;;;;3.13;1.73;;;23.40;50.70;;;;;;5048372;28;20196;-62
2021/10/24 05:07:48;;;;;;;2.78;1.90;;;23.40;50.60;;;;;;5051530;28;20278;-63
2021/10/24 05:10:19;;;;;;;2.63;1.70;;;23.50;50.60;;;;;;5060989;28;20232;-47
2021/10/24 05:12:49;;;;;;;4.25;2.10;;;23.50;50.50;;;;;;5037779;28;20311;-61
2021/10/24 05:15:21;;;;;;;1.85;1.30;;;23.50;50.30;;;;;;5048789;28;20242;-57
2021/10/24 05:17:52;;;;;;;2.60;1.60;;;23.60;50.30;;;;;;5065270;28;20197;-59
2021/10/24 05:20:22;;;;;;;3.90;1.50;;;23.60;50.20;;;;;;5049545;28;20291;-63
2021/10/24 05:22:54;;;;;;;3.85;1.77;;;23.70;50.20;;;;;;5049484;28;20242;-56
2021/10/24 05:25:25;;;;;;;3.83;1.90;;;23.70;50.10;;;;;;5058346;28;20604;-63
2021/10/24 05:27:57;;;;;;;3.10;1.60;;;23.70;50.10;;;;;;5057530;28;20195;-63
2021/10/24 05:30:27;;;;;;;2.88;1.65;;;23.70;50.00;;;;;;5046737;28;20215;-60
2021/10/24 05:32:59;;;;;;;2.65;1.40;;;23.70;50.00;;;;;;5035770;28;20311;-64
2021/10/24 05:35:30;;;;;;;2.35;1.55;;;23.70;50.00;;;;;;5049326;28;20282;-56
2021/10/24 05:38:02;;;;;;;2.65;1.52;;;23.80;50.10;;;;;;5048400;28;20610;-63
2021/10/24 05:40:33;;;;;;;3.00;1.38;;;23.80;50.10;;;;;;5046441;28;20246;-56
2021/10/24 05:43:03;;;;;;;3.20;1.75;;;23.80;50.20;;;;;;5062029;28;20245;-54
2021/10/24 05:45:35;;;;;;;3.13;1.73;;;23.80;50.20;;;;;;5064044;28;20237;-60
2021/10/24 05:48:06;;;;;;;8.50;1.52;;;23.80;50.10;;;;;;5053749;28;20206;-59
2021/10/24 05:50:37;;;;;;;7.53;1.55;;;23.80;50.70;;;;;;5049594;28;20262;-57
2021/10/24 05:53:09;;;;;;;5.35;1.42;;;23.90;50.80;;;;;;5050323;28;20646;-59
2021/10/24 05:55:40;;;;;;;4.95;1.73;;;23.90;50.70;;;;;;5048471;28;21165;-64
2021/10/24 05:58:10;;;;;;;7.13;1.88;;;23.90;50.70;;;;;;5049630;28;20234;-57
2021/10/24 06:00:41;;;;;;;3.03;1.55;;;24.00;50.70;;;;;;5049862;28;20211;-53
2021/10/24 06:03:11;;;;;;;8.60;1.67;;;24.00;50.70;;;;;;5065076;28;20260;-51
2021/10/24 06:05:44;;;;;;;4.18;1.52;;;24.00;50.60;;;;;;5040776;28;20243;-50
2021/10/24 06:08:23;;;;;;;4.55;1.80;;;24.00;50.50;;;;;;5057783;28;20235;-63
2021/10/24 06:11:02;;;;;;;5.88;1.70;;;24.00;50.50;;;;;;5063243;28;20279;-58
2021/10/24 06:13:32;;;;;;;5.00;1.30;;;24.00;50.60;;;;;;5054024;28;20229;-57
2021/10/24 06:16:03;;;;;;;2.85;1.67;;;24.00;50.60;;;;;;5054527;28;20275;-55
2021/10/24 06:18:33;;;;;;;5.75;1.70;;;24.00;50.60;;;;;;5056487;28;20261;-51
2021/10/24 06:21:04;;;;;;;5.05;2.10;;;24.00;50.50;;;;;;5033709;28;20308;-52
2021/10/24 06:23:36;;;;;;;5.45;3.58;;;24.00;50.50;;;;;;5032284;28;20287;-59
2021/10/24 06:26:07;;;;;;;6.32;2.67;;;24.00;50.50;;;;;;5031633;28;20228;-54
2021/10/24 06:28:37;;;;;;;6.43;3.17;;;24.00;50.50;;;;;;5034052;28;20259;-61
2021/10/24 06:31:08;;;;;;;5.75;2.90;;;24.00;50.50;;;;;;5048215;28;20219;-65
2021/10/24 06:33:38;;;;;;;3.47;2.92;;;24.00;50.40;;;;;;5049116;28;20680;-61
2021/10/24 06:36:09;;;;;;;4.53;2.83;;;24.00;50.30;;;;;;5055811;28;20289;-57
2021/10/24 06:38:41;;;;;;;4.22;2.90;;;24.00;50.30;;;;;;5058820;28;20237;-62
2021/10/24 06:41:11;;;;;;;5.07;2.95;;;24.00;50.30;;;;;;5058491;28;20255;-57
2021/10/24 06:43:42;;;;;;;3.90;2.95;;;24.00;50.30;;;;;;5062411;28;20227;-55
2021/10/24 06:46:12;;;;;;;4.05;2.88;;;24.00;50.40;;;;;;5047848;28;20227;-60
2021/10/24 06:48:43;;;;;;;3.78;3.00;;;24.00;50.50;;;;;;5065829;28;20226;-60
2021/10/24 06:51:13;;;;;;;4.07;2.97;;;24.00;50.40;;;;;;5063997;28;20246;-55
2021/10/24 06:53:46;;;;;;;3.42;2.72;;;24.00;50.40;;;;;;5049772;28;20258;-65
2021/10/24 06:56:16;;;;;;;4.20;2.67;;;24.00;50.40;;;;;;5048047;28;20266;-62
2021/10/24 06:58:47;;;;;;;3.53;2.63;;;24.00;50.50;;;;;;5048311;28;20242;-59
2021/10/24 07:01:17;;;;;;;3.00;2.67;;;24.00;50.40;;;;;;5052345;28;20250;-65
2021/10/24 07:03:48;;;;;;;3.58;2.75;;;24.00;50.40;;;;;;5059909;28;20242;-58
2021/10/24 07:06:18;;;;;;;2.80;2.60;;;24.00;50.40;;;;;;5046693;28;20239;-62
2021/10/24 07:08:50;;;;;;;3.75;2.95;;;23.90;50.40;;;;;;5030832;28;20232;-62
2021/10/24 07:11:21;;;;;;;4.05;2.58;;;24.00;50.40;;;;;;5048450;28;20666;-60
2021/10/24 07:13:51;;;;;;;3.47;2.45;;;23.90;50.30;;;;;;5044822;28;20323;-56
2021/10/24 07:16:22;;;;;;;3.10;2.80;;;23.90;50.20;;;;;;5063843;28;20286;-65
2021/10/24 07:18:52;;;;;;;2.53;2.30;;;23.90;50.30;;;;;;5062946;28;20243;-65
2021/10/24 07:21:24;;;;;;;2.90;2.40;;;23.90;50.30;;;;;;5052799;28;20303;-63
2021/10/24 07:23:57;;;;;;;3.17;2.20;;;23.90;50.30;;;;;;5040505;28;20288;-60
2021/10/24 07:26:27;;;;;;;3.47;2.10;;;23.90;50.30;;;;;;5051611;28;20295;-62
2021/10/24 07:28:58;;;;;;;2.78;2.42;;;23.90;50.40;;;;;;5065913;28;20231;-65
2021/10/24 07:31:29;;;;;;;3.38;2.22;;;23.90;50.30;;;;;;5051765;28;20266;-57
2021/10/24 07:33:59;;;;;;;5.55;2.20;;;23.90;50.30;;;;;;5062961;28;20231;-62
2021/10/24 07:36:30;;;;;;;3.42;2.05;;;23.80;50.40;;;;;;5051590;28;20238;-64
2021/10/24 07:39:02;;;;;;;3.83;2.00;;;23.80;50.40;;;;;;5061224;28;20230;-60
2021/10/24 07:41:33;;;;;;;3.78;1.80;;;23.80;50.40;;;;;;5063575;28;20254;-61
2021/10/24 07:44:05;;;;;;;3.05;1.88;;;23.80;50.40;;;;;;5062983;28;20234;-58
2021/10/24 07:46:36;;;;;;;3.10;1.90;;;23.80;50.40;;;;;;5061644;28;20223;-60
2021/10/24 07:49:07;;;;;;;4.30;1.63;;;23.80;50.40;;;;;;5049217;28;20231;-57
2021/10/24 07:51:38;;;;;;;2.63;1.75;;;23.80;50.40;;;;;;5052345;28;20243;-62
2021/10/24 07:54:10;;;;;;;1.73;1.63;;;23.70;50.40;;;;;;5050146;28;20746;-46
2021/10/24 07:56:40;;;;;;;1.73;1.63;;;23.70;50.30;;;;;;5035070;28;20242;-48
2021/10/24 07:59:11;;;;;;;2.40;1.58;;;23.70;50.40;;;;;;5065561;28;20234;-64
2021/10/24 08:01:42;;;;;;;2.63;1.58;;;23.70;50.40;;;;;;5053851;28;20310;-49
2021/10/24 08:04:12;;;;;;;3.72;1.80;;;23.70;50.40;;;;;;5059145;28;20237;-58
2021/10/24 08:06:43;;;;;;;2.03;1.60;;;23.70;50.40;;;;;;5064437;28;20634;-56
2021/10/24 08:09:15;;;;;;;2.35;1.65;;;23.70;50.50;;;;;;5060754;28;20239;-60
2021/10/24 08:11:47;;;;;;;2.08;1.50;;;23.60;50.50;;;;;;5051949;28;20258;-58
2021/10/24 08:14:18;;;;;;;1.73;1.50;;;23.60;50.50;;;;;;5067175;28;20215;-64
2021/10/24 08:16:48;;;;;;;3.35;1.80;;;23.60;50.50;;;;;;5050876;28;20246;-51
2021/10/24 08:19:20;;;;;;;1.77;1.45;;;23.60;50.50;;;;;;5043487;28;20231;-60
2021/10/24 08:21:52;;;;;;;3.30;1.50;;;23.50;50.40;;;;;;5064625;28;20378;-50
2021/10/24 08:24:24;;;;;;;2.78;1.77;;;23.50;50.50;;;;;;5050924;28;20295;-48
2021/10/24 08:26:55;;;;;;;2.42;1.45;;;23.50;50.50;;;;;;5047398;28;20231;-65
2021/10/24 08:29:25;;;;;;;1.80;1.58;;;23.50;50.40;;;;;;5050108;28;20196;-56
2021/10/24 08:31:56;;;;;;;1.88;1.38;;;23.50;50.50;;;;;;5045336;28;20763;-63
2021/10/24 08:34:27;;;;;;;1.60;1.45;;;23.50;50.50;;;;;;5039338;28;20215;-64
2021/10/24 08:36:57;;;;;;;1.70;1.33;;;23.40;50.40;;;;;;5053978;28;20195;-52
2021/10/24 08:39:30;;;;;;;1.90;1.27;;;23.40;50.50;;;;;;5026508;28;20286;-53
2021/10/24 08:42:00;;;;;;;1.38;1.20;;;23.40;50.50;;;;;;5064454;28;20762;-59
2021/10/24 08:44:31;;;;;;;1.38;1.25;;;23.40;50.60;;;;;;5040277;28;20200;-51
2021/10/24 08:47:02;;;;;;;2.17;1.40;;;23.40;50.70;;;;;;5045300;28;20290;-51
2021/10/24 08:49:32;;;;;;;3.45;1.50;;;23.40;50.80;;;;;;5047872;28;20242;-60
2021/10/24 08:52:05;;;;;;;2.80;1.40;;;23.40;50.90;;;;;;5053914;28;20302;-49
2021/10/24 08:54:38;;;;;;;1.58;1.23;;;23.30;50.90;;;;;;5052880;28;20815;-62
2021/10/24 08:57:08;;;;;;;2.00;1.40;;;23.30;50.90;;;;;;5037773;28;20294;-52
2021/10/24 08:59:40;;;;;;;1.92;1.30;;;23.30;50.90;;;;;;5043284;28;20469;-52
2021/10/24 09:02:11;;;;;;;1.50;1.20;;;23.30;50.90;;;;;;5065387;28;20324;-42
2021/10/24 09:04:52;;;;;;;1.30;1.20;;;23.30;50.80;;;;;;5050125;28;20250;-49
2021/10/24 09:07:23;;;;;;;1.95;1.23;;;23.30;50.80;;;;;;5063087;28;20202;-52
2021/10/24 09:09:55;;;;;;;1.80;1.30;;;23.20;51.00;;;;;;5060928;28;20248;-42
2021/10/24 09:12:26;;;;;;;2.30;1.30;;;23.20;50.80;;;;;;5043298;28;20764;-61
2021/10/24 09:14:58;;;;;;;1.10;0.98;;;23.20;50.80;;;;;;5033442;28;20263;-45
2021/10/24 09:17:32;;;;;;;1.30;1.20;;;23.20;50.80;;;;;;5041245;28;20235;-57
2021/10/24 09:20:04;;;;;;;1.33;1.15;;;23.10;50.80;;;;;;5047496;28;20208;-44
2021/10/24 09:22:36;;;;;;;1.58;1.10;;;23.10;50.70;;;;;;5034742;28;20273;-58
2021/10/24 09:25:14;;;;;;;1.85;1.17;;;23.10;50.80;;;;;;5045076;28;20200;-55
2021/10/24 09:27:51;;;;;;;1.50;1.30;;;23.10;50.80;;;;;;5036947;28;20218;-59
2021/10/24 09:30:25;;;;;;;1.15;1.00;;;23.10;50.80;;;;;;5026638;28;20203;-50
2021/10/24 09:33:00;;;;;;;1.20;1.10;;;23.00;50.70;;;;;;5036947;28;20203;-59
2021/10/24 09:35:33;;;;;;;1.55;1.10;;;23.00;50.80;;;;;;5043213;28;20223;-59
2021/10/24 09:38:04;;;;;;;1.75;1.27;;;23.00;50.90;;;;;;5033251;28;20282;-53
2021/10/24 09:40:38;;;;;;;1.35;1.20;;;23.00;50.90;;;;;;5039902;28;20301;-49
2021/10/24 09:43:22;;;;;;;2.25;1.30;;;23.00;50.90;;;;;;5038191;28;20254;-59
2021/10/24 09:45:54;;;;;;;1.52;1.20;;;23.00;50.90;;;;;;5035895;28;20199;-53
2021/10/24 09:48:25;;;;;;;1.88;1.10;;;23.00;50.90;;;;;;5035169;28;20256;-50
2021/10/24 09:50:56;;;;;;;1.58;1.23;;;22.90;50.80;;;;;;5033333;28;20215;-60
2021/10/24 09:53:28;;;;;;;2.55;1.10;;;22.90;50.80;;;;;;5033463;28;20219;-56
2021/10/24 09:56:11;;;;;;;1.80;1.30;;;22.90;50.80;;;;;;5040454;28;20281;-59
2021/10/24 09:58:43;;;;;;;1.20;1.10;;;22.90;50.80;;;;;;5054549;28;20283;-62
2021/10/24 10:01:15;;;;;;;1.33;1.23;;;22.90;50.80;;;;;;5035284;28;20308;-57
2021/10/24 10:03:45;;;;;;;1.65;1.20;;;22.90;51.40;;;;;;5043860;28;20231;-53
2021/10/24 10:06:16;;;;;;;1.45;1.10;;;22.80;50.80;;;;;;5040916;28;20223;-54
2021/10/24 10:08:47;;;;;;;1.88;1.23;;;22.80;50.80;;;;;;5037226;28;20203;-52
2021/10/24 10:11:25;;;;;;;1.20;1.05;;;22.80;50.90;;;;;;5045605;28;20314;-60
2021/10/24 10:14:01;;;;;;;0.90;0.90;;;22.80;50.90;;;;;;5054514;28;20265;-45
2021/10/24 10:16:35;;;;;;;1.08;0.95;;;22.70;50.80;;;;;;5051817;28;20268;-59
2021/10/24 10:19:08;;;;;;;1.05;0.75;;;22.70;50.90;;;;;;5038734;28;20728;-47
2021/10/24 10:21:39;;;;;;;1.20;1.10;;;22.70;50.90;;;;;;5032703;28;20302;-56
2021/10/24 10:24:12;;;;;;;1.15;1.05;;;22.70;50.90;;;;;;5046079;28;20207;-55
2021/10/24 10:26:46;;;;;;;1.35;1.05;;;22.70;51.00;;;;;;5043973;28;20218;-59
2021/10/24 10:29:38;;;;;;;1.48;1.13;;;22.70;51.00;;;;;;5034696;28;20231;-62
2021/10/24 10:32:19;;;;;;;1.65;1.30;;;22.60;50.90;;;;;;5043702;28;20310;-59
2021/10/24 10:35:10;;;;;;;0.82;0.80;;;22.60;51.00;;;;;;5049549;28;20258;-62
2021/10/24 10:37:52;;;;;;;1.08;0.93;;;22.60;51.00;;;;;;5045357;28;20315;-53
2021/10/24 10:40:25;;;;;;;1.17;1.00;;;22.50;50.90;;;;;;5034100;28;20334;-45
2021/10/24 10:43:12;;;;;;;1.23;1.13;;;22.50;51.50;;;;;;5035252;28;20231;-51
2021/10/24 10:45:47;;;;;;;1.20;1.10;;;22.50;51.00;;;;;;5037116;28;20200;-63
2021/10/24 10:48:41;;;;;;;1.88;1.25;;;22.50;51.00;;;;;;5066518;22;20306;-45
2021/10/24 10:51:21;;;;;;;1.40;1.05;;;22.50;51.00;;;;;;5050857;28;21752;-44
2021/10/24 10:54:02;;;;;;;1.15;0.90;;;22.40;51.00;;;;;;5051343;28;20241;-50
2021/10/24 10:56:53;;;;;;;3.08;0.90;;;22.40;51.00;;;;;;5048358;28;20254;-45
2021/10/24 10:59:37;;;;;;;2.30;0.93;;;22.40;51.00;;;;;;5051369;28;20261;-49
2021/10/24 11:02:28;;;;;;;1.13;0.98;;;22.40;51.10;;;;;;5049835;28;20310;-47
2021/10/24 11:05:00;;;;;;;2.85;1.00;;;22.40;51.20;;;;;;5048455;28;20208;-40
2021/10/24 11:07:50;;;;;;;0.95;0.90;;;22.40;51.20;;;;;;5053955;28;20198;-40
2021/10/24 11:10:47;;;;;;;1.05;0.80;;;22.30;51.30;;;;;;5045472;28;20278;-41
2021/10/24 11:13:47;;;;;;;0.88;0.80;;;22.30;51.30;;;;;;5049641;28;20251;-39
2021/10/24 11:16:43;;;;;;;1.17;0.70;;;22.30;51.30;;;;;;4974270;28;20688;-42
2021/10/24 11:20:00;;;;;;;1.15;0.80;;;22.30;51.30;;;;;;5041340;28;20227;-41
2021/10/24 11:22:32;;;;;;;1.08;0.98;;;22.20;51.20;;;;;;4980977;28;20265;-43
2021/10/24 11:25:02;;;;;;;1.83;1.02;;;22.20;51.20;;;;;;5025036;28;20290;-47
2021/10/24 11:27:34;;;;;;;1.33;0.98;;;22.20;51.20;;;;;;5052484;28;20231;-40
2021/10/24 11:30:12;;;;;;;1.10;0.85;;;22.20;51.30;;;;;;5034220;28;20258;-49
2021/10/24 11:32:44;;;;;;;1.00;0.90;;;22.20;51.30;;;;;;5052084;28;20203;-50
2021/10/24 11:35:21;;;;;;;1.08;0.93;;;22.20;51.30;;;;;;5051868;28;20309;-42
2021/10/24 11:37:53;;;;;;;1.00;0.90;;;22.10;51.20;;;;;;5049741;28;20219;-39
2021/10/24 11:40:28;;;;;;;0.95;0.75;;;22.10;51.30;;;;;;5050355;28;20237;-40
2021/10/24 11:43:10;;;;;;;0.73;0.73;;;22.10;51.30;;;;;;5043120;28;20286;-40
2021/10/24 11:45:43;;;;;;;0.93;0.80;;;22.00;51.20;;;;;;5042619;28;20559;-42
2021/10/24 11:48:20;;;;;;;0.88;0.70;;;22.00;51.20;;;;;;5050057;28;20215;-49
2021/10/24 11:50:56;;;;;;;1.13;0.73;;;22.00;51.20;;;;;;5048646;28;20253;-40
2021/10/24 11:53:35;;;;;;;0.70;0.70;;;22.00;51.20;;;;;;5050175;28;20223;-42
2021/10/24 11:56:08;;;;;;;2.13;0.80;;;22.00;51.30;;;;;;5050179;28;20694;-43
2021/10/24 11:58:54;;;;;;;1.55;1.10;;;22.00;51.30;;;;;;5037294;28;20357;-40
2021/10/24 12:01:26;;;;;;;0.75;0.73;;;22.00;51.30;;;;;;5050260;28;20227;-43
2021/10/24 12:04:00;;;;;;;1.00;0.90;;;21.90;51.20;;;;;;5050948;28;20238;-45
2021/10/24 12:06:54;;;;;;;1.10;1.00;;;21.90;51.20;;;;;;5049880;28;20231;-41
2021/10/24 12:09:39;;;;;;;0.70;0.70;;;21.90;51.30;;;;;;5050499;28;20199;-45
2021/10/24 12:12:14;;;;;;;0.93;0.80;;;21.90;51.30;;;;;;5037100;28;20224;-42
2021/10/24 12:14:52;;;;;;;0.77;0.77;;;21.90;51.30;;;;;;5049580;28;20314;-42
2021/10/24 12:17:25;;;;;;;1.40;0.88;;;21.80;51.20;;;;;;5050746;28;20231;-39
2021/10/24 12:22:55;;;;;;;0.70;0.70;;;21.80;51.20;;;;;;5106391;27;20585;-45
2021/10/24 12:25:40;;;;;;;1.05;0.80;;;21.70;51.30;;;;;;5095415;28;20201;-39
2021/10/24 12:28:15;;;;;;;1.33;0.80;;;21.80;51.40;;;;;;5094408;28;20291;-42
2021/10/24 12:30:51;;;;;;;0.90;0.70;;;21.70;51.30;;;;;;5098351;28;20700;-39
2021/10/24 12:33:31;;;;;;;1.10;1.00;;;21.70;51.30;;;;;;5089417;28;20201;-39
2021/10/24 12:36:06;;;;;;;0.95;0.80;;;21.70;51.30;;;;;;5099770;28;20276;-39
2021/10/24 12:38:56;;;;;;;0.73;0.73;;;21.70;51.90;;;;;;5102980;28;20193;-38
2021/10/24 12:41:36;;;;;;;0.82;0.70;;;21.60;51.30;;;;;;5085379;28;20253;-39
2021/10/24 12:44:08;;;;;;;0.98;0.70;;;21.60;51.30;;;;;;5071980;28;20663;-39
2021/10/24 12:46:40;;;;;;;0.90;0.75;;;21.60;51.30;;;;;;5088329;28;20225;-39
2021/10/24 12:49:16;;;;;;;1.02;0.90;;;21.60;51.30;;;;;;5103700;28;20232;-41
2021/10/24 12:51:48;;;;;;;1.80;0.70;;;21.60;51.30;;;;;;5100508;28;20303;-42
2021/10/24 12:54:32;;;;;;;0.80;0.80;;;21.60;51.30;;;;;;5089188;28;20222;-38
2021/10/24 12:57:03;;;;;;;1.15;0.90;;;21.50;51.20;;;;;;5086208;28;20285;-42
2021/10/24 12:59:33;;;;;;;0.60;0.60;;;21.50;51.30;;;;;;5085726;28;20203;-40
2021/10/24 13:02:04;;;;;;;1.42;0.90;;;21.50;51.30;;;;;;5090507;28;20257;-54
2021/10/24 13:04:35;;;;;;;0.68;0.68;;;21.50;51.30;;;;;;5099355;28;20203;-52
2021/10/24 13:07:05;;;;;;;0.68;0.68;;;21.50;51.30;;;;;;5086116;28;20247;-56
2021/10/24 13:09:37;;;;;;;0.65;0.60;;;21.40;51.30;;;;;;5085695;28;20788;-52
2021/10/24 13:12:08;;;;;;;0.60;0.60;;;21.40;51.40;;;;;;5086458;28;20253;-55
2021/10/24 13:14:39;;;;;;;0.70;0.70;;;21.40;51.40;;;;;;5087054;28;20230;-54
2021/10/24 13:17:10;;;;;;;0.68;0.68;;;21.40;51.40;;;;;;5086169;28;20221;-54
2021/10/24 13:19:40;;;;;;;0.82;0.70;;;21.40;51.40;;;;;;5096075;28;20290;-53